createdAt,value
2023-01-21T00:00:43.101Z,101970.88
2023-01-21T00:03:12.950Z,101976.69
2023-01-21T00:05:39.727Z,101974.91
2023-01-21T00:08:06.227Z,101968.63
2023-01-21T00:10:32.729Z,101971.56
2023-01-21T00:12:59.275Z,101985.22
2023-01-21T00:15:25.931Z,101986.25
2023-01-21T00:17:53.568Z,101977.69
2023-01-21T00:20:20.165Z,101979.06
2023-01-21T00:22:46.647Z,101978.00
2023-01-21T00:25:13.164Z,101983.91
2023-01-21T00:27:39.883Z,101986.81
2023-01-21T00:30:06.895Z,101988.19
2023-01-21T00:32:33.413Z,101988.59
2023-01-21T00:34:59.902Z,101980.59
2023-01-21T00:37:26.513Z,101984.09
2023-01-21T00:39:53.022Z,101993.50
2023-01-21T00:42:19.554Z,101993.81
2023-01-21T00:44:46.066Z,101995.59
2023-01-21T00:47:12.557Z,101998.84
2023-01-21T00:49:39.144Z,102002.63
2023-01-21T00:52:05.750Z,101998.84
2023-01-21T00:54:32.432Z,102013.28
2023-01-21T00:56:59.256Z,102019.41
2023-01-21T00:59:28.116Z,102022.91
2023-01-21T01:01:55.087Z,102021.31
2023-01-21T01:04:22.968Z,102023.44
2023-01-21T01:06:49.487Z,102025.28
2023-01-21T01:09:15.998Z,102026.63
2023-01-21T01:11:42.508Z,102030.91
2023-01-21T01:14:09.175Z,102033.06
2023-01-21T01:16:35.717Z,102035.16
2023-01-21T01:19:02.197Z,102039.38
2023-01-21T01:21:28.777Z,102042.63
2023-01-21T01:23:55.731Z,102048.97
2023-01-21T01:26:22.674Z,102047.94
2023-01-21T01:28:49.299Z,102058.59
2023-01-21T01:31:17.777Z,102050.59
2023-01-21T01:33:44.368Z,102051.09
2023-01-21T01:36:14.923Z,102058.66
2023-01-21T01:38:41.645Z,102054.19
2023-01-21T01:41:08.952Z,102056.88
2023-01-21T01:44:05.755Z,102050.00
2023-01-21T01:46:34.842Z,102049.19
2023-01-21T01:49:05.936Z,102049.19
2023-01-21T01:52:03.577Z,102051.53
2023-01-21T01:54:36.403Z,102051.78
2023-01-21T01:57:05.809Z,102056.94
2023-01-21T01:59:33.114Z,102057.94
2023-01-21T02:02:23.088Z,102056.34
2023-01-21T02:04:58.916Z,102062.19
2023-01-21T02:07:26.907Z,102071.03
2023-01-21T02:09:53.863Z,102067.22
2023-01-21T02:12:20.618Z,102071.50
2023-01-21T02:14:47.444Z,102070.94
2023-01-21T02:17:26.681Z,102076.00
2023-01-21T02:20:18.744Z,102075.22
2023-01-21T02:22:59.373Z,102073.63
2023-01-21T02:25:47.697Z,102073.84
2023-01-21T02:28:47.902Z,102073.28
2023-01-21T02:31:55.218Z,102080.56
2023-01-21T02:34:31.505Z,102076.34
2023-01-21T02:37:07.221Z,102077.13
2023-01-21T02:39:56.718Z,102080.63
2023-01-21T02:42:35.496Z,102075.03
2023-01-21T02:45:24.929Z,102092.97
2023-01-21T02:48:08.531Z,102093.75
2023-01-21T02:50:48.056Z,102082.31
2023-01-21T02:53:27.348Z,102083.91
2023-01-21T02:55:54.475Z,102082.31
2023-01-21T02:58:32.056Z,102088.75
2023-01-21T03:01:43.260Z,102095.13
2023-01-21T03:04:37.490Z,102087.13
2023-01-21T03:07:27.379Z,102088.19
2023-01-21T03:09:58.291Z,102086.81
2023-01-21T03:12:28.974Z,102082.16
2023-01-21T03:15:45.594Z,102092.38
2023-01-21T03:18:17.707Z,102090.78
2023-01-21T03:20:47.774Z,102096.19
2023-01-21T03:23:24.315Z,102108.22
2023-01-21T03:25:51.007Z,102109.09
2023-01-21T03:28:21.910Z,102108.03
2023-01-21T03:30:55.408Z,102101.66
2023-01-21T03:33:22.919Z,102104.09
2023-01-21T03:35:52.123Z,102097.94
2023-01-21T03:38:25.089Z,102095.84
2023-01-21T03:40:56.617Z,102104.88
2023-01-21T03:43:23.136Z,102099.06
2023-01-21T03:45:55.557Z,102100.66
2023-01-21T03:48:28.670Z,102106.31
2023-01-21T03:51:05.425Z,102094.34
2023-01-21T03:53:31.960Z,102092.25
2023-01-21T03:55:59.966Z,102089.50
2023-01-21T03:58:27.555Z,102095.16
2023-01-21T04:00:54.211Z,102098.63
2023-01-21T04:03:20.807Z,102096.22
2023-01-21T04:05:47.355Z,102089.81
2023-01-21T04:08:13.886Z,102092.72
2023-01-21T04:10:40.418Z,102089.75
2023-01-21T04:13:07.048Z,102088.94
2023-01-21T04:15:33.579Z,102083.84
2023-01-21T04:18:00.189Z,102091.91
2023-01-21T04:20:26.668Z,102088.94
2023-01-21T04:22:53.359Z,102088.16
2023-01-21T04:25:20.104Z,102081.25
2023-01-21T04:27:46.620Z,102093.22
2023-01-21T04:30:13.360Z,102092.72
2023-01-21T04:32:40.097Z,102092.50
2023-01-21T04:35:07.104Z,102085.56
2023-01-21T04:37:33.866Z,102101.78
2023-01-21T04:40:00.381Z,102098.06
2023-01-21T04:42:26.909Z,102095.94
2023-01-21T04:44:53.450Z,102102.16
2023-01-21T04:47:19.949Z,102103.47
2023-01-21T04:49:48.741Z,102111.47
2023-01-21T04:52:15.307Z,102107.75
2023-01-21T04:54:41.872Z,102117.34
2023-01-21T04:57:08.404Z,102111.47
2023-01-21T04:59:35.066Z,102109.72
2023-01-21T05:02:01.611Z,102112.47
2023-01-21T05:04:28.242Z,102110.34
2023-01-21T05:06:55.748Z,102107.66
2023-01-21T05:09:22.314Z,102113.81
2023-01-21T05:11:48.977Z,102115.38
2023-01-21T05:14:15.498Z,102123.91
2023-01-21T05:16:42.062Z,102126.34
2023-01-21T05:19:08.624Z,102127.88
2023-01-21T05:21:35.155Z,102130.56
2023-01-21T05:24:02.155Z,102132.19
2023-01-21T05:26:28.747Z,102135.34
2023-01-21T05:28:55.249Z,102132.34
2023-01-21T05:31:21.813Z,102135.25
2023-01-21T05:33:48.669Z,102129.84
2023-01-21T05:36:15.164Z,102133.34
2023-01-21T05:38:41.691Z,102138.16
2023-01-21T05:41:08.361Z,102133.41
2023-01-21T05:43:34.923Z,102141.09
2023-01-21T05:46:01.709Z,102148.19
2023-01-21T05:48:29.551Z,102144.16
2023-01-21T05:50:58.283Z,102149.56
2023-01-21T05:53:25.368Z,102154.63
2023-01-21T05:55:53.694Z,102146.88
2023-01-21T05:58:20.842Z,102150.34
2023-01-21T06:00:48.528Z,102150.34
2023-01-21T06:03:16.064Z,102153.91
2023-01-21T06:05:43.092Z,102155.06
2023-01-21T06:08:10.721Z,102164.44
2023-01-21T06:10:37.667Z,102159.47
2023-01-21T06:13:04.252Z,102162.97
2023-01-21T06:15:33.574Z,102156.50
2023-01-21T06:18:01.320Z,102159.75
2023-01-21T06:20:30.526Z,102161.38
2023-01-21T06:22:58.124Z,102158.50
2023-01-21T06:25:25.631Z,102159.78
2023-01-21T06:27:55.505Z,102154.78
2023-01-21T06:30:22.999Z,102160.91
2023-01-21T06:32:49.497Z,102175.88
2023-01-21T06:35:16.153Z,102177.00
2023-01-21T06:37:42.756Z,102177.53
2023-01-21T06:40:10.358Z,102177.00
2023-01-21T06:42:36.871Z,102182.34
2023-01-21T06:45:03.987Z,102179.34
2023-01-21T06:47:30.962Z,102177.00
2023-01-21T06:49:57.954Z,102185.53
2023-01-21T06:52:24.434Z,102184.53
2023-01-21T06:54:50.965Z,102190.09
2023-01-21T06:57:17.461Z,102194.63
2023-01-21T06:59:44.010Z,102195.44
2023-01-21T07:02:12.800Z,102190.09
2023-01-21T07:04:39.504Z,102187.66
2023-01-21T07:07:06.066Z,102185.25
2023-01-21T07:09:32.591Z,102194.63
2023-01-21T07:11:59.089Z,102198.91
2023-01-21T07:14:25.626Z,102199.94
2023-01-21T07:16:52.123Z,102192.38
2023-01-21T07:19:21.398Z,102196.44
2023-01-21T07:21:47.843Z,102192.16
2023-01-21T07:24:14.346Z,102191.88
2023-01-21T07:26:41.956Z,102194.81
2023-01-21T07:29:09.153Z,102198.28
2023-01-21T07:31:35.939Z,102200.94
2023-01-21T07:34:03.044Z,102207.88
2023-01-21T07:36:29.644Z,102205.16
2023-01-21T07:38:56.207Z,102206.78
2023-01-21T07:41:22.960Z,102215.84
2023-01-21T07:43:50.486Z,102209.78
2023-01-21T07:46:18.175Z,102211.69
2023-01-21T07:48:44.682Z,102211.94
2023-01-21T07:51:11.256Z,102214.88
2023-01-21T07:53:37.763Z,102221.81
2023-01-21T07:56:07.881Z,102224.56
2023-01-21T07:58:34.440Z,102225.03
2023-01-21T08:01:03.895Z,102224.28
2023-01-21T08:03:30.370Z,102226.72
2023-01-21T08:05:56.867Z,102236.63
2023-01-21T08:08:23.351Z,102228.38
2023-01-21T08:10:56.353Z,102231.06
2023-01-21T08:13:23.327Z,102232.44
2023-01-21T08:15:51.286Z,102225.22
2023-01-21T08:18:18.215Z,102229.75
2023-01-21T08:20:44.980Z,102222.25
2023-01-21T08:23:11.627Z,102225.78
2023-01-21T08:25:38.574Z,102233.84
2023-01-21T08:28:05.310Z,102234.97
2023-01-21T08:30:32.001Z,102225.91
2023-01-21T08:32:58.619Z,102227.03
2023-01-21T08:35:25.284Z,102232.38
2023-01-21T08:37:54.576Z,102232.16
2023-01-21T08:40:21.069Z,102234.03
2023-01-21T08:42:47.564Z,102234.84
2023-01-21T08:45:15.456Z,102234.09
2023-01-21T08:47:42.065Z,102233.59
2023-01-21T08:50:09.827Z,102229.06
2023-01-21T08:52:36.371Z,102227.53
2023-01-21T08:55:02.891Z,102233.16
2023-01-21T08:57:29.945Z,102229.97
2023-01-21T08:59:56.748Z,102229.47
2023-01-21T09:02:23.683Z,102229.78
2023-01-21T09:04:50.690Z,102232.69
2023-01-21T09:07:17.331Z,102234.31
2023-01-21T09:09:44.059Z,102229.25
2023-01-21T09:12:10.626Z,102233.81
2023-01-21T09:14:37.493Z,102234.66
2023-01-21T09:17:04.152Z,102231.56
2023-01-21T09:19:31.078Z,102234.22
2023-01-21T09:21:57.818Z,102233.22
2023-01-21T09:24:25.215Z,102230.78
2023-01-21T09:26:52.458Z,102238.84
2023-01-21T09:29:19.272Z,102241.03
2023-01-21T09:31:46.149Z,102235.41
2023-01-21T09:34:13.018Z,102237.75
2023-01-21T09:36:39.667Z,102234.63
2023-01-21T09:39:07.919Z,102229.81
2023-01-21T09:41:45.641Z,102226.59
2023-01-21T09:44:21.135Z,102234.16
2023-01-21T09:47:11.284Z,102239.53
2023-01-21T09:49:41.655Z,102232.06
2023-01-21T09:52:27.196Z,102227.81
2023-01-21T09:54:55.187Z,102231.84
2023-01-21T09:57:39.470Z,102234.31
2023-01-21T10:00:15.670Z,102233.25
2023-01-21T10:03:04.711Z,102238.13
2023-01-21T10:05:50.338Z,102239.47
2023-01-21T10:08:29.336Z,102234.94
2023-01-21T10:11:34.108Z,102227.94
2023-01-21T10:14:07.089Z,102231.16
2023-01-21T10:16:55.834Z,102229.59
2023-01-21T10:19:39.803Z,102231.72
2023-01-21T10:22:13.059Z,102228.00
2023-01-21T10:24:46.212Z,102228.53
2023-01-21T10:27:16.902Z,102217.38
2023-01-21T10:29:43.648Z,102216.31
2023-01-21T10:32:15.172Z,102219.75
2023-01-21T10:34:50.213Z,102223.03
2023-01-21T10:37:29.460Z,102220.66
2023-01-21T10:40:02.168Z,102207.03
2023-01-21T10:42:51.234Z,102214.72
2023-01-21T10:45:28.258Z,102216.88
2023-01-21T10:48:15.943Z,102203.78
2023-01-21T10:51:06.328Z,102217.72
2023-01-21T10:53:44.505Z,102206.75
2023-01-21T10:56:29.194Z,102203.56
2023-01-21T10:59:05.877Z,102208.91
2023-01-21T11:01:36.356Z,102206.31
2023-01-21T11:04:14.578Z,102204.44
2023-01-21T11:06:41.287Z,102205.81
2023-01-21T11:09:11.471Z,102194.59
2023-01-21T11:11:40.721Z,102199.66
2023-01-21T11:14:08.068Z,102193.00
2023-01-21T11:16:49.661Z,102175.63
2023-01-21T11:19:30.492Z,102183.41
2023-01-21T11:22:09.180Z,102181.81
2023-01-21T11:24:47.114Z,102174.34
2023-01-21T11:27:21.473Z,102165.25
2023-01-21T11:29:49.508Z,102159.38
2023-01-21T11:32:24.313Z,102162.59
2023-01-21T11:35:00.973Z,102163.13
2023-01-21T11:37:29.283Z,102159.94
2023-01-21T11:39:58.703Z,102158.63
2023-01-21T11:42:25.331Z,102146.56
2023-01-21T11:44:54.739Z,102151.91
2023-01-21T11:47:51.295Z,102146.53
2023-01-21T11:50:35.354Z,102137.97
2023-01-21T11:55:47.428Z,102127.25
2023-01-21T11:58:30.445Z,102131.03
2023-01-21T12:01:06.833Z,102125.41
2023-01-21T12:03:37.710Z,102131.53
2023-01-21T12:06:06.918Z,102112.78
2023-01-21T12:08:35.890Z,102112.53
2023-01-21T12:11:03.732Z,102119.22
2023-01-21T12:14:05.687Z,102114.94
2023-01-21T12:16:37.571Z,102103.94
2023-01-21T12:19:26.607Z,102105.81
2023-01-21T12:22:01.759Z,102105.25
2023-01-21T12:24:49.947Z,102111.19
2023-01-21T12:27:19.392Z,102109.56
2023-01-21T12:29:56.374Z,102113.84
2023-01-21T12:32:40.921Z,102100.72
2023-01-21T12:35:12.923Z,102104.22
2023-01-21T12:37:54.164Z,102096.19
2023-01-21T12:40:46.100Z,102092.94
2023-01-21T12:43:20.055Z,102084.91
2023-01-21T12:45:51.557Z,102093.50
2023-01-21T12:48:24.287Z,102086.50
2023-01-21T12:50:59.370Z,102090.53
2023-01-21T12:53:49.426Z,102091.34
2023-01-21T12:56:44.778Z,102101.50
2023-01-21T12:59:19.717Z,102089.44
2023-01-21T13:01:52.343Z,102086.75
2023-01-21T13:04:45.835Z,102096.16
2023-01-21T13:07:26.878Z,102093.47
2023-01-21T13:10:03.423Z,102100.16
2023-01-21T13:12:31.518Z,102098.81
2023-01-21T13:15:16.962Z,102101.25
2023-01-21T13:17:49.533Z,102088.66
2023-01-21T13:20:21.120Z,102091.59
2023-01-21T13:22:57.231Z,102093.19
2023-01-21T13:25:44.839Z,102094.84
2023-01-21T13:28:38.519Z,102089.75
2023-01-21T13:31:15.286Z,102079.81
2023-01-21T13:33:55.107Z,102080.09
2023-01-21T13:36:59.170Z,102081.69
2023-01-21T13:39:28.703Z,102076.34
2023-01-21T13:42:32.574Z,102077.41
2023-01-21T13:45:22.283Z,102078.75
2023-01-21T13:48:10.574Z,102063.19
2023-01-21T13:51:00.031Z,102042.00
2023-01-21T13:53:44.340Z,102033.72
2023-01-21T13:56:45.334Z,102036.66
2023-01-21T13:59:21.066Z,102030.50
2023-01-21T14:01:49.757Z,102043.91
2023-01-21T14:04:43.174Z,102063.72
2023-01-21T14:07:19.091Z,102059.16
2023-01-21T14:10:02.401Z,102042.00
2023-01-21T14:12:52.586Z,102041.50
2023-01-21T14:15:26.660Z,102048.72
2023-01-21T14:18:19.791Z,102024.59
2023-01-21T14:21:08.224Z,102010.69
2023-01-21T14:23:44.184Z,101994.84
2023-01-21T14:26:29.435Z,101982.81
2023-01-21T14:29:06.705Z,101954.66
2023-01-21T14:31:37.454Z,101961.38
2023-01-21T14:34:10.265Z,101953.63
2023-01-21T14:36:41.768Z,102002.09
2023-01-21T14:39:29.204Z,101997.28
2023-01-21T14:42:04.769Z,101986.81
2023-01-21T14:44:45.635Z,102013.09
2023-01-21T14:47:28.749Z,102012.28
2023-01-21T14:49:57.210Z,102017.38
2023-01-21T14:52:43.254Z,102014.69
2023-01-21T14:55:30.046Z,102020.59
2023-01-21T14:57:57.476Z,102022.22
2023-01-21T15:00:29.243Z,102021.66
2023-01-21T15:03:13.475Z,102015.22
2023-01-21T15:05:41.166Z,102004.50
2023-01-21T15:08:24.140Z,101993.78
2023-01-21T15:10:53.891Z,101984.41
2023-01-21T15:13:47.364Z,101979.84
2023-01-21T15:16:34.187Z,101964.88
2023-01-21T15:19:09.940Z,101990.06
2023-01-21T15:21:36.411Z,101974.81
2023-01-21T15:24:18.982Z,101974.00
2023-01-21T15:27:13.399Z,101968.38
2023-01-21T15:29:55.275Z,101958.19
2023-01-21T15:32:31.350Z,101958.19
2023-01-21T15:35:19.911Z,101937.31
2023-01-21T15:37:49.331Z,101926.59
2023-01-21T15:40:18.575Z,101929.03
2023-01-21T15:42:53.376Z,101948.28
2023-01-21T15:45:47.696Z,101956.88
2023-01-21T15:48:18.226Z,101960.06
2023-01-21T15:50:55.206Z,101951.78
2023-01-21T15:53:29.446Z,101958.47
2023-01-21T15:56:24.349Z,101949.63
2023-01-21T15:59:16.507Z,101957.09
2023-01-21T16:01:43.232Z,101975.75
2023-01-21T16:04:27.590Z,101968.00
2023-01-21T16:07:15.689Z,101978.19
2023-01-21T16:10:08.901Z,101976.59
2023-01-21T16:13:05.266Z,101980.06
2023-01-21T16:15:54.121Z,101977.63
2023-01-21T16:18:38.010Z,101974.63
2023-01-21T16:21:04.705Z,101973.00
2023-01-21T16:23:36.536Z,101974.06
2023-01-21T16:26:03.699Z,101979.66
2023-01-21T16:28:49.873Z,101974.84
2023-01-21T16:31:16.747Z,101972.16
2023-01-21T16:33:43.513Z,101969.50
2023-01-21T16:36:14.077Z,101974.78
2023-01-21T16:38:42.276Z,101977.19
2023-01-21T16:41:08.796Z,101976.09
2023-01-21T16:43:38.723Z,101982.78
2023-01-21T16:46:11.965Z,101980.66
2023-01-21T16:48:38.665Z,101976.88
2023-01-21T16:51:05.502Z,101985.97
2023-01-21T16:53:32.416Z,101986.03
2023-01-21T16:55:59.575Z,101991.41
2023-01-21T16:58:29.614Z,101993.47
2023-01-21T17:01:10.505Z,102004.16
2023-01-21T17:03:37.845Z,101984.56
2023-01-21T17:06:09.004Z,101978.94
2023-01-21T17:08:36.459Z,101986.13
2023-01-21T17:11:08.106Z,101983.41
2023-01-21T17:13:41.558Z,101978.03
2023-01-21T17:16:30.540Z,101975.56
2023-01-21T17:19:00.128Z,101987.88
2023-01-21T17:21:34.355Z,101980.19
2023-01-21T17:24:04.663Z,101987.66
2023-01-21T17:26:34.821Z,101976.69
2023-01-21T17:29:18.637Z,101983.63
2023-01-21T17:31:46.266Z,101981.50
2023-01-21T17:34:15.657Z,101983.34
2023-01-21T17:36:44.521Z,101987.28
2023-01-21T17:39:11.549Z,101987.06
2023-01-21T17:41:41.062Z,101979.84
2023-01-21T17:44:24.483Z,101990.00
2023-01-21T17:46:54.717Z,101992.66
2023-01-21T17:49:23.403Z,101999.56
2023-01-21T17:51:52.684Z,101993.22
2023-01-21T17:54:26.367Z,101995.88
2023-01-21T17:56:55.074Z,101995.63
2023-01-21T17:59:31.341Z,101991.81
2023-01-21T18:01:58.049Z,101998.22
2023-01-21T18:04:24.765Z,102000.09
2023-01-21T18:06:52.807Z,101992.13
2023-01-21T18:09:20.758Z,102001.75
2023-01-21T18:11:48.470Z,102001.47
2023-01-21T18:14:20.599Z,102003.34
2023-01-21T18:16:47.664Z,102016.72
2023-01-21T18:19:31.436Z,102008.16
2023-01-21T18:21:58.782Z,102009.84
2023-01-21T18:24:25.798Z,102007.72
2023-01-21T18:26:52.704Z,102011.97
2023-01-21T18:29:21.780Z,102003.94
2023-01-21T18:31:50.723Z,102010.84
2023-01-21T18:34:18.105Z,102011.41
2023-01-21T18:36:44.791Z,102023.72
2023-01-21T18:39:21.389Z,102014.13
2023-01-21T18:41:48.011Z,102011.44
2023-01-21T18:44:14.928Z,102011.47
2023-01-21T18:46:43.221Z,102016.81
2023-01-21T18:49:19.354Z,102022.91
2023-01-21T18:51:46.502Z,102019.41
2023-01-21T18:54:14.247Z,102016.22
2023-01-21T18:56:42.439Z,102021.06
2023-01-21T18:59:12.499Z,102019.41
2023-01-21T19:01:39.269Z,102018.88
2023-01-21T19:04:09.551Z,102018.88
2023-01-21T19:06:36.560Z,102019.19
2023-01-21T19:09:03.638Z,102014.16
2023-01-21T19:11:30.240Z,102020.00
2023-01-21T19:13:56.815Z,102024.81
2023-01-21T19:16:23.453Z,102023.44
2023-01-21T19:18:50.310Z,102019.47
2023-01-21T19:21:16.940Z,102024.53
2023-01-21T19:23:43.599Z,102027.47
2023-01-21T19:26:13.067Z,102019.50
2023-01-21T19:28:39.632Z,102025.63
2023-01-21T19:31:06.369Z,102031.22
2023-01-21T19:33:32.985Z,102025.88
2023-01-21T19:36:03.270Z,102027.47
2023-01-21T19:38:30.176Z,102039.75
2023-01-21T19:40:56.841Z,102040.56
2023-01-21T19:43:23.521Z,102036.03
2023-01-21T19:45:51.533Z,102034.97
2023-01-21T19:48:19.559Z,102043.50
2023-01-21T19:50:46.400Z,102046.16
2023-01-21T19:53:15.254Z,102043.50
2023-01-21T19:55:42.475Z,102046.72
2023-01-21T19:58:29.242Z,102062.19
2023-01-21T20:00:56.130Z,102060.88
2023-01-21T20:03:24.610Z,102061.66
2023-01-21T20:05:58.517Z,102048.06
2023-01-21T20:08:27.660Z,102060.09
2023-01-21T20:10:54.231Z,102065.66
2023-01-21T20:13:20.937Z,102065.41
2023-01-21T20:15:48.726Z,102063.56
2023-01-21T20:18:33.624Z,102070.75
2023-01-21T20:21:00.155Z,102066.47
2023-01-21T20:23:26.890Z,102072.59
2023-01-21T20:25:55.502Z,102071.81
2023-01-21T20:28:24.932Z,102077.44
2023-01-21T20:30:52.682Z,102075.84
2023-01-21T20:33:21.402Z,102080.94
2023-01-21T20:35:49.875Z,102073.72
2023-01-21T20:38:21.769Z,102082.84
2023-01-21T20:40:48.321Z,102085.81
2023-01-21T20:43:16.073Z,102089.00
2023-01-21T20:45:46.670Z,102102.66
2023-01-21T20:48:22.966Z,102093.84
2023-01-21T20:50:51.156Z,102091.69
2023-01-21T20:53:17.753Z,102100.84
2023-01-21T20:55:46.560Z,102104.06
2023-01-21T20:58:14.357Z,102104.63
2023-01-21T21:00:41.363Z,102108.66
2023-01-21T21:03:07.940Z,102111.53
2023-01-21T21:05:34.518Z,102108.38
2023-01-21T21:08:01.053Z,102117.75
2023-01-21T21:10:36.255Z,102109.19
2023-01-21T21:13:03.874Z,102107.88
2023-01-21T21:15:31.902Z,102112.13
2023-01-21T21:17:59.316Z,102107.88
2023-01-21T21:20:28.323Z,102107.06
2023-01-21T21:22:54.942Z,102117.22
2023-01-21T21:25:23.578Z,102113.47
2023-01-21T21:27:50.195Z,102119.88
2023-01-21T21:30:37.017Z,102120.72
2023-01-21T21:33:03.798Z,102121.25
2023-01-21T21:35:35.828Z,102114.84
2023-01-21T21:38:08.092Z,102124.25
2023-01-21T21:40:37.507Z,102127.75
2023-01-21T21:43:22.647Z,102128.78
2023-01-21T21:46:08.093Z,102127.16
2023-01-21T21:48:46.086Z,102130.69
2023-01-21T21:51:14.673Z,102136.03
2023-01-21T21:53:41.717Z,102141.06
2023-01-21T21:56:10.952Z,102133.28
2023-01-21T21:58:37.637Z,102143.22
2023-01-21T22:01:15.588Z,102142.09
2023-01-21T22:03:42.281Z,102137.31
2023-01-21T22:06:09.629Z,102137.31
2023-01-21T22:08:38.020Z,102147.19
2023-01-21T22:11:06.381Z,102140.50
2023-01-21T22:13:38.019Z,102142.09
2023-01-21T22:16:04.964Z,102154.94
2023-01-21T22:18:33.032Z,102149.09
2023-01-21T22:21:04.970Z,102149.63
2023-01-21T22:23:32.756Z,102151.75
2023-01-21T22:26:01.984Z,102155.50
2023-01-21T22:28:28.659Z,102154.72
2023-01-21T22:30:55.632Z,102155.50
2023-01-21T22:33:22.385Z,102151.75
2023-01-21T22:35:48.979Z,102159.25
2023-01-21T22:38:15.552Z,102162.50
2023-01-21T22:40:42.100Z,102160.84
2023-01-21T22:43:09.269Z,102167.84
2023-01-21T22:45:35.888Z,102169.94
2023-01-21T22:48:02.429Z,102163.50
2023-01-21T22:50:29.115Z,102165.66
2023-01-21T22:52:56.576Z,102170.50
2023-01-21T22:55:23.236Z,102169.94
2023-01-21T22:57:49.823Z,102170.22
2023-01-21T23:00:33.818Z,102174.22
2023-01-21T23:03:00.459Z,102172.13
2023-01-21T23:05:28.496Z,102181.75
2023-01-21T23:07:55.455Z,102173.22
2023-01-21T23:10:22.035Z,102180.19
2023-01-21T23:12:48.555Z,102177.75
2023-01-21T23:15:15.149Z,102177.50
2023-01-21T23:17:41.691Z,102176.16
2023-01-21T23:20:09.283Z,102180.72
2023-01-21T23:22:35.881Z,102182.84
2023-01-21T23:25:02.444Z,102183.09
2023-01-21T23:27:28.991Z,102175.59
2023-01-21T23:29:55.542Z,102186.84
2023-01-21T23:32:22.148Z,102183.34
2023-01-21T23:34:48.687Z,102181.19
2023-01-21T23:37:15.218Z,102178.28
2023-01-21T23:39:42.260Z,102184.47
2023-01-21T23:42:08.944Z,102180.97
2023-01-21T23:44:35.491Z,102187.91
2023-01-21T23:47:02.176Z,102182.81
2023-01-21T23:49:29.006Z,102179.06
2023-01-21T23:51:55.721Z,102173.72
2023-01-21T23:54:22.264Z,102177.47
2023-01-21T23:56:48.770Z,102179.13
2023-01-21T23:59:15.469Z,102173.75
